createdAt,value
2023-05-21T00:00:41.933Z,102055.13
2023-05-21T00:03:16.532Z,102031.13
2023-05-21T00:05:47.350Z,102064.88
2023-05-21T00:08:15.606Z,102065.75
2023-05-21T00:10:43.806Z,102059.50
2023-05-21T00:13:11.928Z,102059.50
2023-05-21T00:15:40.551Z,102056.44
2023-05-21T00:18:08.683Z,102057.81
2023-05-21T00:20:38.459Z,102063.91
2023-05-21T00:23:06.582Z,102054.16
2023-05-21T00:25:34.996Z,102050.50
2023-05-21T00:28:03.292Z,102036.75
2023-05-21T00:30:31.458Z,102048.78
2023-05-21T00:33:02.683Z,102041.72
2023-05-21T00:35:31.052Z,101994.34
2023-05-21T00:38:00.873Z,102033.69
2023-05-21T00:40:29.090Z,102029.25
2023-05-21T00:42:57.388Z,102034.63
2023-05-21T00:45:25.911Z,102037.31
2023-05-21T00:47:55.784Z,102041.72
2023-05-21T00:50:24.454Z,102039.97
2023-05-21T00:52:53.444Z,102031.22
2023-05-21T00:55:23.215Z,102034.63
2023-05-21T00:57:51.647Z,102039.97
2023-05-21T01:00:20.731Z,102039.97
2023-05-21T01:02:50.100Z,102035.50
2023-05-21T01:05:18.443Z,102038.06
2023-05-21T01:07:46.809Z,102033.56
2023-05-21T01:10:15.145Z,102015.50
2023-05-21T01:12:46.374Z,102020.88
2023-05-21T01:15:15.383Z,102038.06
2023-05-21T01:17:46.148Z,102032.72
2023-05-21T01:20:18.339Z,102036.38
2023-05-21T01:22:56.557Z,102031.59
2023-05-21T01:25:25.567Z,102047.09
2023-05-21T01:27:53.760Z,102048.78
2023-05-21T01:30:23.588Z,102040.84
2023-05-21T01:33:00.786Z,102055.03
2023-05-21T01:35:32.539Z,102048.78
2023-05-21T01:38:10.428Z,102047.91
2023-05-21T01:40:46.725Z,102039.97
2023-05-21T01:43:17.319Z,102045.13
2023-05-21T01:45:47.851Z,102045.34
2023-05-21T01:48:17.507Z,102038.06
2023-05-21T01:50:46.913Z,101994.34
2023-05-21T01:53:17.824Z,102029.47
2023-05-21T01:55:46.152Z,102024.50
2023-05-21T01:58:15.841Z,102026.22
2023-05-21T02:00:45.667Z,101971.69
2023-05-21T02:03:15.060Z,102049.75
2023-05-21T02:05:43.249Z,102043.44
2023-05-21T02:08:11.456Z,102037.19
2023-05-21T02:10:40.946Z,102036.56
2023-05-21T02:13:09.126Z,102041.72
2023-05-21T02:15:37.693Z,102041.72
2023-05-21T02:18:06.280Z,102047.09
2023-05-21T02:20:34.410Z,101976.41
2023-05-21T02:23:02.548Z,102004.84
2023-05-21T02:25:30.703Z,102039.03
2023-05-21T02:28:01.049Z,101933.72
2023-05-21T02:30:29.218Z,102043.44
2023-05-21T02:32:59.046Z,102035.50
2023-05-21T02:35:29.346Z,102040.75
2023-05-21T02:37:59.692Z,102031.94
2023-05-21T02:40:27.941Z,102000.25
2023-05-21T02:42:56.393Z,102032.72
2023-05-21T02:45:26.112Z,101991.47
2023-05-21T02:47:54.446Z,102042.44
2023-05-21T02:50:23.496Z,102032.72
2023-05-21T02:52:53.526Z,101976.22
2023-05-21T02:55:23.844Z,102034.63
2023-05-21T02:57:51.941Z,102023.75
2023-05-21T03:00:20.143Z,102023.75
2023-05-21T03:02:49.760Z,102039.97
2023-05-21T03:05:17.953Z,102036.38
2023-05-21T03:07:46.069Z,102035.59
2023-05-21T03:10:14.191Z,102034.63
2023-05-21T03:12:42.308Z,102038.28
2023-05-21T03:15:11.490Z,102007.88
2023-05-21T03:17:39.849Z,102034.63
2023-05-21T03:20:16.277Z,102023.91
2023-05-21T03:22:44.819Z,102026.47
2023-05-21T03:25:13.224Z,102028.31
2023-05-21T03:27:42.232Z,102025.84
2023-05-21T03:30:11.028Z,102030.22
2023-05-21T03:32:41.621Z,102028.31
2023-05-21T03:35:11.549Z,102031.00
2023-05-21T03:37:41.977Z,102029.25
2023-05-21T03:40:10.917Z,102030.13
2023-05-21T03:42:39.005Z,101981.16
2023-05-21T03:45:08.205Z,102028.31
2023-05-21T03:47:36.489Z,102032.72
2023-05-21T03:50:06.130Z,102031.84
2023-05-21T03:52:35.688Z,102022.19
2023-05-21T03:55:03.807Z,102032.72
2023-05-21T03:57:31.877Z,102035.38
2023-05-21T04:00:00.300Z,102031.00
2023-05-21T04:02:28.723Z,102027.72
2023-05-21T04:04:57.000Z,102036.38
2023-05-21T04:07:25.152Z,102017.91
2023-05-21T04:09:55.159Z,102031.94
2023-05-21T04:12:23.337Z,102001.25
2023-05-21T04:14:51.657Z,102031.84
2023-05-21T04:17:22.081Z,102027.56
2023-05-21T04:19:50.235Z,102034.63
2023-05-21T04:22:18.334Z,102034.63
2023-05-21T04:24:46.690Z,101986.72
2023-05-21T04:27:16.884Z,102033.69
2023-05-21T04:29:45.072Z,101924.75
2023-05-21T04:32:15.372Z,102029.25
2023-05-21T04:34:44.825Z,102034.63
2023-05-21T04:37:12.990Z,102021.50
2023-05-21T04:39:41.433Z,102029.47
2023-05-21T04:42:11.168Z,102034.63
2023-05-21T04:44:41.526Z,102023.44
2023-05-21T04:47:10.469Z,102031.00
2023-05-21T04:49:38.594Z,102028.31
2023-05-21T04:52:06.846Z,101966.47
2023-05-21T04:54:36.997Z,102007.78
2023-05-21T04:57:05.135Z,102005.00
2023-05-21T04:59:33.231Z,102021.97
2023-05-21T05:02:02.906Z,102017.59
2023-05-21T05:04:31.379Z,101999.44
2023-05-21T05:06:59.736Z,101947.94
2023-05-21T05:09:27.954Z,102013.19
2023-05-21T05:11:56.371Z,102010.38
2023-05-21T05:14:24.630Z,101974.75
2023-05-21T05:16:52.810Z,101988.06
2023-05-21T05:19:22.437Z,101969.50
2023-05-21T05:21:50.538Z,102013.19
2023-05-21T05:24:18.907Z,102018.53
2023-05-21T05:26:47.251Z,102021.22
2023-05-21T05:29:15.353Z,102011.47
2023-05-21T05:31:43.475Z,102029.25
2023-05-21T05:34:11.641Z,102018.53
2023-05-21T05:36:41.120Z,102014.91
2023-05-21T05:39:09.243Z,102014.03
2023-05-21T05:41:37.323Z,102010.50
2023-05-21T05:44:05.802Z,102007.81
2023-05-21T05:46:34.049Z,102020.28
2023-05-21T05:49:02.224Z,101977.13
2023-05-21T05:51:30.413Z,101947.06
2023-05-21T05:54:00.306Z,102007.81
2023-05-21T05:56:28.558Z,101962.28
2023-05-21T05:58:56.621Z,102007.81
2023-05-21T06:01:26.359Z,102001.63
2023-05-21T06:03:54.540Z,102005.13
2023-05-21T06:06:22.711Z,102008.69
2023-05-21T06:08:50.902Z,101998.81
2023-05-21T06:11:20.525Z,101996.25
2023-05-21T06:13:48.681Z,101976.91
2023-05-21T06:16:16.984Z,101997.09
2023-05-21T06:18:45.515Z,101986.88
2023-05-21T06:21:13.718Z,101983.34
2023-05-21T06:23:42.128Z,102001.63
2023-05-21T06:26:10.272Z,102002.44
2023-05-21T06:28:40.102Z,101998.16
2023-05-21T06:31:08.212Z,101998.81
2023-05-21T06:33:36.382Z,102008.56
2023-05-21T06:36:04.815Z,102003.31
2023-05-21T06:38:33.456Z,102010.50
2023-05-21T06:41:01.937Z,102005.91
2023-05-21T06:43:31.561Z,101939.13
2023-05-21T06:46:01.847Z,102005.91
2023-05-21T06:48:30.052Z,101944.06
2023-05-21T06:50:58.291Z,102007.59
2023-05-21T06:53:26.444Z,102007.59
2023-05-21T06:55:54.778Z,102007.59
2023-05-21T06:58:23.012Z,102003.22
2023-05-21T07:00:51.244Z,102011.25
2023-05-21T07:03:21.204Z,101934.63
2023-05-21T07:05:49.389Z,102007.59
2023-05-21T07:08:17.518Z,102011.25
2023-05-21T07:10:46.343Z,102012.03
2023-05-21T07:13:14.778Z,102002.25
2023-05-21T07:15:43.030Z,102006.78
2023-05-21T07:18:11.945Z,102002.25
2023-05-21T07:20:41.470Z,102005.91
2023-05-21T07:23:09.565Z,102012.97
2023-05-21T07:25:37.834Z,102012.97
2023-05-21T07:28:06.877Z,102013.84
2023-05-21T07:30:35.080Z,101943.34
2023-05-21T07:33:03.394Z,102012.97
2023-05-21T07:35:31.560Z,102000.75
2023-05-21T07:38:01.102Z,101998.63
2023-05-21T07:40:29.204Z,102002.25
2023-05-21T07:42:58.093Z,101995.16
2023-05-21T07:45:26.263Z,101991.72
2023-05-21T07:47:54.698Z,102001.31
2023-05-21T07:50:22.866Z,101993.25
2023-05-21T07:52:51.248Z,102002.25
2023-05-21T07:55:21.203Z,101998.63
2023-05-21T07:57:49.588Z,101993.25
2023-05-21T08:00:17.895Z,101959.09
2023-05-21T08:02:46.444Z,101988.84
2023-05-21T08:05:16.870Z,101996.03
2023-05-21T08:07:45.003Z,101991.50
2023-05-21T08:10:13.174Z,101991.50
2023-05-21T08:12:42.658Z,101986.16
2023-05-21T08:15:11.472Z,101990.69
2023-05-21T08:17:39.647Z,101987.13
2023-05-21T08:20:09.138Z,101991.50
2023-05-21T08:22:37.265Z,101952.56
2023-05-21T08:25:06.057Z,101984.44
2023-05-21T08:27:34.168Z,101979.97
2023-05-21T08:30:04.255Z,101984.34
2023-05-21T08:32:32.450Z,101979.09
2023-05-21T08:35:00.933Z,101984.34
2023-05-21T08:37:29.020Z,101978.97
2023-05-21T08:39:57.295Z,101942.28
2023-05-21T08:42:37.368Z,101955.00
2023-05-21T08:45:08.976Z,101980.78
2023-05-21T08:47:37.771Z,101987.91
2023-05-21T08:50:09.918Z,101986.16
2023-05-21T08:52:38.122Z,101987.03
2023-05-21T08:55:07.289Z,101982.53
2023-05-21T08:57:35.931Z,101977.16
2023-05-21T09:00:07.265Z,101965.69
2023-05-21T09:02:40.830Z,101904.84
2023-05-21T09:05:10.836Z,101965.47
2023-05-21T09:07:45.517Z,101955.78
2023-05-21T09:10:15.449Z,101908.50
2023-05-21T09:12:43.659Z,101977.16
2023-05-21T09:15:12.403Z,101965.47
2023-05-21T09:17:42.007Z,101968.16
2023-05-21T09:20:12.883Z,101956.56
2023-05-21T09:22:44.839Z,101966.44
2023-05-21T09:25:14.240Z,101971.81
2023-05-21T09:27:43.691Z,101945.59
2023-05-21T09:30:13.495Z,101944.94
2023-05-21T09:32:43.643Z,101913.03
2023-05-21T09:35:13.343Z,101952.06
2023-05-21T09:37:43.974Z,101945.00
2023-05-21T09:40:17.614Z,101948.63
2023-05-21T09:42:48.425Z,101913.44
2023-05-21T09:45:20.471Z,101949.91
2023-05-21T09:47:51.275Z,101940.47
2023-05-21T09:50:21.089Z,101945.00
2023-05-21T09:52:50.498Z,101944.03
2023-05-21T09:55:18.895Z,101939.63
2023-05-21T09:57:50.572Z,101935.97
2023-05-21T10:00:21.518Z,101934.28
2023-05-21T10:02:55.220Z,101938.66
2023-05-21T10:05:28.076Z,101927.94
2023-05-21T10:08:02.010Z,101930.63
2023-05-21T10:10:31.872Z,101925.25
2023-05-21T10:13:05.239Z,101923.56
2023-05-21T10:15:43.136Z,101914.97
2023-05-21T10:18:14.880Z,101927.19
2023-05-21T10:20:44.194Z,101918.19
2023-05-21T10:23:13.077Z,101914.75
2023-05-21T10:25:42.538Z,101916.47
2023-05-21T10:28:10.745Z,101899.75
2023-05-21T10:30:39.933Z,101911.97
2023-05-21T10:33:09.420Z,101912.84
2023-05-21T10:35:41.586Z,101886.63
2023-05-21T10:38:11.035Z,101895.88
2023-05-21T10:40:39.485Z,101895.88
2023-05-21T10:43:27.547Z,101907.47
2023-05-21T10:46:16.511Z,101896.75
2023-05-21T10:49:08.453Z,101891.38
2023-05-21T10:51:52.105Z,101889.66
2023-05-21T10:54:54.488Z,101896.75
2023-05-21T10:57:53.312Z,101888.81
2023-05-21T11:00:22.134Z,101882.59
2023-05-21T11:02:53.178Z,101859.66
2023-05-21T11:05:39.721Z,101871.41
2023-05-21T11:08:22.312Z,101878.94
2023-05-21T11:10:54.861Z,101879.34
2023-05-21T11:13:23.689Z,101877.63
2023-05-21T11:16:08.260Z,101875.31
2023-05-21T11:19:03.807Z,101875.31
2023-05-21T11:21:34.996Z,101875.31
2023-05-21T11:24:08.605Z,101876.25
2023-05-21T11:27:04.468Z,101871.84
2023-05-21T11:29:47.635Z,101888.81
2023-05-21T11:32:17.528Z,101869.28
2023-05-21T11:34:49.798Z,101876.47
2023-05-21T11:37:36.079Z,101873.56
2023-05-21T11:40:26.433Z,101868.19
2023-05-21T11:42:56.183Z,101868.19
2023-05-21T11:45:26.433Z,101862.84
2023-05-21T11:47:56.310Z,101862.84
2023-05-21T11:50:24.515Z,101868.19
2023-05-21T11:52:53.425Z,101864.56
2023-05-21T11:55:26.529Z,101852.75
2023-05-21T11:57:56.044Z,101863.72
2023-05-21T12:00:24.541Z,101859.22
2023-05-21T12:02:57.262Z,101859.22
2023-05-21T12:05:27.239Z,101853.84
2023-05-21T12:07:56.779Z,101858.25
2023-05-21T12:10:28.467Z,101860.91
2023-05-21T12:12:57.677Z,101859.22
2023-05-21T12:15:27.956Z,101836.38
2023-05-21T12:17:57.065Z,101859.22
2023-05-21T12:20:28.389Z,101854.06
2023-05-21T12:22:59.010Z,101855.56
2023-05-21T12:25:29.999Z,101852.00
2023-05-21T12:27:58.921Z,101832.94
2023-05-21T12:30:27.706Z,101832.63
2023-05-21T12:32:59.474Z,101835.81
2023-05-21T12:35:27.819Z,101835.09
2023-05-21T12:37:56.928Z,101840.34
2023-05-21T12:40:39.304Z,101839.47
2023-05-21T12:43:08.484Z,101842.25
2023-05-21T12:45:39.417Z,101848.28
2023-05-21T12:48:08.134Z,101849.97
2023-05-21T12:50:40.446Z,101852.66
2023-05-21T12:53:11.988Z,101805.16
2023-05-21T12:55:41.673Z,101842.91
2023-05-21T12:58:09.903Z,101836.69
2023-05-21T13:00:38.650Z,101832.19
2023-05-21T13:03:07.577Z,101838.50
2023-05-21T13:05:35.910Z,101835.81
2023-05-21T13:08:04.139Z,101840.22
2023-05-21T13:10:32.216Z,101839.25
2023-05-21T13:13:02.461Z,101831.22
2023-05-21T13:15:30.810Z,101839.25
2023-05-21T13:18:01.279Z,101829.41
2023-05-21T13:20:29.772Z,101829.28
2023-05-21T13:22:58.030Z,101828.31
2023-05-21T13:25:29.250Z,101828.31
2023-05-21T13:27:58.214Z,101824.66
2023-05-21T13:30:28.338Z,101824.66
2023-05-21T13:32:56.745Z,101824.66
2023-05-21T13:35:24.882Z,101819.28
2023-05-21T13:37:53.020Z,101816.59
2023-05-21T13:40:21.790Z,101813.91
2023-05-21T13:42:50.980Z,101808.56
2023-05-21T13:45:21.312Z,101810.28
2023-05-21T13:47:51.050Z,101797.84
2023-05-21T13:50:19.401Z,101808.56
2023-05-21T13:52:47.611Z,101798.69
2023-05-21T13:55:17.312Z,101773.00
2023-05-21T13:57:46.063Z,101796.13
2023-05-21T14:00:16.145Z,101799.56
2023-05-21T14:02:44.961Z,101791.41
2023-05-21T14:05:14.741Z,101760.59
2023-05-21T14:07:42.917Z,101782.41
2023-05-21T14:10:11.908Z,101777.91
2023-05-21T14:12:40.894Z,101775.00
2023-05-21T14:15:09.989Z,101784.75
2023-05-21T14:17:40.384Z,101784.75
2023-05-21T14:20:10.137Z,101779.38
2023-05-21T14:22:40.107Z,101775.94
2023-05-21T14:25:09.018Z,101775.94
2023-05-21T14:27:38.566Z,101781.31
2023-05-21T14:30:07.948Z,101770.56
2023-05-21T14:32:36.102Z,101729.25
2023-05-21T14:35:05.153Z,101767.19
2023-05-21T14:37:33.274Z,101762.03
2023-05-21T14:40:02.738Z,101758.38
2023-05-21T14:42:30.928Z,101770.81
2023-05-21T14:45:07.452Z,101769.09
2023-05-21T14:47:47.793Z,101762.03
2023-05-21T14:50:17.617Z,101762.88
2023-05-21T14:52:45.826Z,101765.56
2023-05-21T14:55:16.992Z,101755.16
2023-05-21T14:57:45.360Z,101762.03
2023-05-21T15:00:15.695Z,101767.41
2023-05-21T15:02:44.017Z,101756.69
2023-05-21T15:05:12.262Z,101756.69
2023-05-21T15:07:40.351Z,101750.44
2023-05-21T15:10:10.268Z,101754.94
2023-05-21T15:12:40.105Z,101746.19
2023-05-21T15:15:08.937Z,101721.09
2023-05-21T15:17:37.376Z,101728.59
2023-05-21T15:20:06.845Z,101738.84
2023-05-21T15:22:35.747Z,101738.84
2023-05-21T15:25:04.411Z,101737.16
2023-05-21T15:27:32.576Z,101733.50
2023-05-21T15:30:02.579Z,101733.50
2023-05-21T15:32:31.647Z,101729.00
2023-05-21T15:35:00.224Z,101729.88
2023-05-21T15:37:32.236Z,101721.94
2023-05-21T15:40:00.507Z,101717.41
2023-05-21T15:42:31.380Z,101712.03
2023-05-21T15:44:59.549Z,101650.44
2023-05-21T15:47:29.181Z,101717.41
2023-05-21T15:49:58.914Z,101717.41
2023-05-21T15:52:27.119Z,101700.50
2023-05-21T15:54:55.262Z,101704.97
2023-05-21T15:57:23.343Z,101690.66
2023-05-21T15:59:52.706Z,101717.41
2023-05-21T16:02:21.089Z,101706.69
2023-05-21T16:04:52.232Z,101705.22
2023-05-21T16:07:21.121Z,101704.97
2023-05-21T16:09:49.375Z,101685.47
2023-05-21T16:12:17.663Z,101702.19
2023-05-21T16:14:45.763Z,101702.19
2023-05-21T16:17:13.970Z,101708.41
2023-05-21T16:19:42.098Z,101680.78
2023-05-21T16:22:11.641Z,101701.19
2023-05-21T16:24:39.725Z,101694.03
2023-05-21T16:27:07.974Z,101694.78
2023-05-21T16:29:37.112Z,101688.44
2023-05-21T16:32:07.363Z,101692.09
2023-05-21T16:34:36.430Z,101695.50
2023-05-21T16:37:04.646Z,101696.47
2023-05-21T16:39:34.269Z,101695.50
2023-05-21T16:42:02.917Z,101691.13
2023-05-21T16:44:32.133Z,101657.63
2023-05-21T16:47:00.484Z,101695.50
2023-05-21T16:49:28.922Z,101691.88
2023-05-21T16:51:57.102Z,101684.78
2023-05-21T16:54:25.282Z,101691.88
2023-05-21T16:56:55.465Z,101619.75
2023-05-21T16:59:23.551Z,101690.13
2023-05-21T17:01:51.702Z,101682.97
2023-05-21T17:04:19.856Z,101660.84
2023-05-21T17:06:47.922Z,101679.41
2023-05-21T17:09:18.070Z,101683.94
2023-05-21T17:11:46.913Z,101689.19
2023-05-21T17:14:32.648Z,101678.81
2023-05-21T17:17:02.243Z,101684.78
2023-05-21T17:19:30.592Z,101677.72
2023-05-21T17:21:58.826Z,101681.38
2023-05-21T17:24:27.054Z,101686.50
2023-05-21T17:26:55.228Z,101675.78
2023-05-21T17:29:24.754Z,101653.50
2023-05-21T17:31:52.984Z,101670.53
2023-05-21T17:34:21.365Z,101667.75
2023-05-21T17:36:49.564Z,101670.41
2023-05-21T17:39:17.674Z,101591.25
2023-05-21T17:41:47.632Z,101661.41
2023-05-21T17:44:17.040Z,101672.13
2023-05-21T17:46:47.230Z,101670.41
2023-05-21T17:49:15.379Z,101662.25
2023-05-21T17:51:44.759Z,101668.47
2023-05-21T17:54:13.112Z,101658.72
2023-05-21T17:56:41.175Z,101663.09
2023-05-21T17:59:10.108Z,101654.56
2023-05-21T18:01:40.394Z,101660.75
2023-05-21T18:04:13.410Z,101652.47
2023-05-21T18:06:41.541Z,101669.44
2023-05-21T18:09:10.694Z,101671.16
2023-05-21T18:11:38.787Z,101666.75
2023-05-21T18:14:06.979Z,101649.19
2023-05-21T18:16:35.182Z,101579.91
2023-05-21T18:19:05.800Z,101656.03
2023-05-21T18:21:36.022Z,101660.53
2023-05-21T18:24:04.443Z,101650.66
2023-05-21T18:26:32.621Z,101654.34
2023-05-21T18:29:01.425Z,101652.59
2023-05-21T18:31:29.634Z,101650.78
2023-05-21T18:33:57.817Z,101655.28
2023-05-21T18:36:26.727Z,101637.31
2023-05-21T18:38:57.719Z,101630.84
2023-05-21T18:41:26.490Z,101667.00
2023-05-21T18:43:54.608Z,101661.84
2023-05-21T18:46:22.744Z,101667.00
2023-05-21T18:48:51.025Z,101667.00
2023-05-21T18:51:19.325Z,101672.34
2023-05-21T18:53:47.425Z,101654.84
2023-05-21T18:56:17.103Z,101672.34
2023-05-21T18:58:45.321Z,101673.22
2023-05-21T19:01:13.937Z,101679.41
2023-05-21T19:03:42.089Z,101684.78
2023-05-21T19:06:10.425Z,101664.25
2023-05-21T19:08:39.119Z,101683.06
2023-05-21T19:11:07.502Z,101688.44
2023-05-21T19:13:37.020Z,101686.97
2023-05-21T19:16:11.019Z,101691.13
2023-05-21T19:18:43.385Z,101695.72
2023-05-21T19:21:12.344Z,101686.75
2023-05-21T19:23:52.025Z,101688.66
2023-05-21T19:26:21.739Z,101685.88
2023-05-21T19:28:53.718Z,101683.53
2023-05-21T19:31:22.929Z,101660.22
2023-05-21T19:33:51.341Z,101700.16
2023-05-21T19:36:20.277Z,101699.16
2023-05-21T19:38:49.325Z,101700.16
2023-05-21T19:41:17.551Z,101702.81
2023-05-21T19:43:46.426Z,101684.97
2023-05-21T19:46:19.256Z,101709.88
2023-05-21T19:48:48.695Z,101705.50
2023-05-21T19:51:17.460Z,101713.56
2023-05-21T19:53:45.569Z,101724.28
2023-05-21T19:56:13.660Z,101703.72
2023-05-21T19:58:41.745Z,101718.91
2023-05-21T20:01:09.887Z,101706.19
2023-05-21T20:03:39.407Z,101720.63
2023-05-21T20:06:07.658Z,101720.72
2023-05-21T20:08:35.801Z,101730.34
2023-05-21T20:11:03.940Z,101709.88
2023-05-21T20:13:32.154Z,101651.16
2023-05-21T20:16:00.287Z,101709.88
2023-05-21T20:18:28.348Z,101709.88
2023-05-21T20:20:58.031Z,101698.38
2023-05-21T20:23:26.091Z,101709.88
2023-05-21T20:25:54.199Z,101702.81
2023-05-21T20:28:23.036Z,101708.19
2023-05-21T20:30:57.706Z,101703.66
2023-05-21T20:33:26.708Z,101710.75
2023-05-21T20:35:54.850Z,101699.16
2023-05-21T20:38:25.889Z,101704.53
2023-05-21T20:40:55.542Z,101690.81
2023-05-21T20:43:24.507Z,101704.53
2023-05-21T20:45:59.892Z,101662.78
2023-05-21T20:48:29.461Z,101685.69
2023-05-21T20:50:57.918Z,101700.97
2023-05-21T20:53:27.654Z,101702.81
2023-05-21T20:55:55.861Z,101673.72
2023-05-21T20:58:25.716Z,101687.88
2023-05-21T21:00:55.471Z,101702.81
2023-05-21T21:03:23.759Z,101701.31
2023-05-21T21:05:53.334Z,101709.03
2023-05-21T21:08:21.408Z,101724.28
2023-05-21T21:10:51.038Z,101723.41
2023-05-21T21:13:19.147Z,101713.56
2023-05-21T21:15:47.308Z,101725.09
2023-05-21T21:18:16.347Z,101718.91
2023-05-21T21:20:49.804Z,101713.56
2023-05-21T21:23:18.099Z,101720.63
2023-05-21T21:25:46.378Z,101721.59
2023-05-21T21:28:15.913Z,101708.19
2023-05-21T21:30:44.298Z,101700.06
2023-05-21T21:33:14.445Z,101710.75
2023-05-21T21:35:42.824Z,101725.97
2023-05-21T21:38:10.984Z,101691.28
2023-05-21T21:40:39.337Z,101713.56
2023-05-21T21:43:07.654Z,101716.94
2023-05-21T21:45:37.183Z,101713.31
2023-05-21T21:48:05.623Z,101712.56
2023-05-21T21:50:33.731Z,101716.13
2023-05-21T21:53:03.782Z,101643.09
2023-05-21T21:55:32.007Z,101715.25
2023-05-21T21:58:00.253Z,101706.22
2023-05-21T22:00:28.651Z,101709.88
2023-05-21T22:02:58.303Z,101708.91
2023-05-21T22:05:26.446Z,101703.66
2023-05-21T22:07:54.629Z,101708.19
2023-05-21T22:10:22.724Z,101701.53
2023-05-21T22:12:51.180Z,101704.75
2023-05-21T22:15:20.992Z,101715.25
2023-05-21T22:17:50.287Z,101709.03
2023-05-21T22:20:20.317Z,101637.75
2023-05-21T22:22:48.389Z,101711.59
2023-05-21T22:25:16.463Z,101702.59
2023-05-21T22:27:44.673Z,101705.41
2023-05-21T22:30:13.461Z,101701.72
2023-05-21T22:32:41.643Z,101696.38
2023-05-21T22:35:12.661Z,101685.47
2023-05-21T22:37:42.169Z,101636.44
2023-05-21T22:40:11.246Z,101693.81
2023-05-21T22:42:39.929Z,101690.25
2023-05-21T22:45:09.775Z,101657.84
2023-05-21T22:47:39.604Z,101663.00
2023-05-21T22:50:10.265Z,101704.53
2023-05-21T22:52:38.614Z,101700.88
2023-05-21T22:55:11.387Z,101709.88
2023-05-21T22:57:39.573Z,101714.38
2023-05-21T23:00:09.236Z,101701.78
2023-05-21T23:02:37.433Z,101719.75
2023-05-21T23:05:06.437Z,101727.69
2023-05-21T23:07:34.548Z,101720.63
2023-05-21T23:10:02.668Z,101725.97
2023-05-21T23:12:32.230Z,101723.28
2023-05-21T23:15:00.794Z,101715.47
2023-05-21T23:17:29.090Z,101727.91
2023-05-21T23:19:57.685Z,101723.28
2023-05-21T23:22:25.762Z,101695.69
2023-05-21T23:24:54.283Z,101725.97
2023-05-21T23:27:22.358Z,101725.97
2023-05-21T23:29:51.831Z,101725.97
2023-05-21T23:32:20.089Z,101726.84
2023-05-21T23:34:48.445Z,101728.66
2023-05-21T23:37:16.678Z,101718.91
2023-05-21T23:39:48.345Z,101727.69
2023-05-21T23:42:16.867Z,101727.78
2023-05-21T23:44:45.333Z,101719.38
2023-05-21T23:47:14.846Z,101725.97
2023-05-21T23:49:42.933Z,101721.47
2023-05-21T23:52:13.118Z,101678.03
2023-05-21T23:54:41.886Z,101720.63
2023-05-21T23:57:09.950Z,101722.31
2023-05-21T23:59:38.216Z,101722.31
